RSC859 GCHI-GCXO
Flight info
| Callsign | RSC859 |
|---|---|
| Flight time | 0h 29m |
| Altitude | 11000 |
| Route | DCT BOXCO |
| Aircraft | AT76/M-SDFGRY/LB1 |
Departure
| Time | 2026-05-01 08:28 |
|---|---|
| Airport | El Hierro Airport (GCHI) |
Arrival
| Time | 2026-05-01 08:57 |
|---|---|
| Airport | Tenerife Norte-Ciudad de La Laguna Airport (GCXO) |
| Time | Latitude | Longitude | Altitude | Speed | Heading |
|---|---|---|---|---|---|
| 2026-05-01 08:19 | 27.81449 | -17.88594 | 95 ft | 0 kts | 333° |
| 2026-05-01 08:23 | 27.81451 | -17.88595 | 95 ft | 2 kts | 333° |
| 2026-05-01 08:23 | 27.81458 | -17.88610 | 97 ft | 2 kts | 274° |
| 2026-05-01 08:24 | 27.81447 | -17.88637 | 95 ft | 5 kts | 240° |
| 2026-05-01 08:24 | 27.81419 | -17.88666 | 95 ft | 3 kts | 170° |
| 2026-05-01 08:24 | 27.81396 | -17.88652 | 97 ft | 6 kts | 152° |
| 2026-05-01 08:24 | 27.81351 | -17.88626 | 97 ft | 8 kts | 152° |
| 2026-05-01 08:25 | 27.81300 | -17.88596 | 97 ft | 9 kts | 153° |
| 2026-05-01 08:25 | 27.81247 | -17.88565 | 97 ft | 8 kts | 154° |
| 2026-05-01 08:25 | 27.81198 | -17.88537 | 99 ft | 8 kts | 153° |
| 2026-05-01 08:25 | 27.81152 | -17.88509 | 100 ft | 7 kts | 152° |
| 2026-05-01 08:26 | 27.81106 | -17.88482 | 102 ft | 8 kts | 153° |
| 2026-05-01 08:26 | 27.81049 | -17.88449 | 103 ft | 10 kts | 152° |
| 2026-05-01 08:26 | 27.81006 | -17.88446 | 102 ft | 7 kts | 186° |
| 2026-05-01 08:26 | 27.80977 | -17.88417 | 103 ft | 5 kts | 61° |
| 2026-05-01 08:27 | 27.80999 | -17.88419 | 103 ft | 0 kts | 332° |
| 2026-05-01 08:27 | 27.81001 | -17.88420 | 103 ft | 6 kts | 332° |
| 2026-05-01 08:27 | 27.81233 | -17.88556 | 99 ft | 69 kts | 333° |
| 2026-05-01 08:27 | 27.81838 | -17.88912 | 90 ft | 123 kts | 331° |
| 2026-05-01 08:28 | 27.82607 | -17.89399 | 428 ft | 134 kts | 329° |
| 2026-05-01 08:28 | 27.83436 | -17.89965 | 871 ft | 143 kts | 328° |
| 2026-05-01 08:28 | 27.84288 | -17.90579 | 1176 ft | 150 kts | 327° |
| 2026-05-01 08:28 | 27.85178 | -17.91232 | 1477 ft | 155 kts | 327° |
| 2026-05-01 08:29 | 27.86150 | -17.91723 | 1787 ft | 157 kts | 358° |
| 2026-05-01 08:29 | 27.87155 | -17.91243 | 2051 ft | 163 kts | 42° |
| 2026-05-01 08:29 | 27.87967 | -17.90330 | 2336 ft | 167 kts | 47° |
| 2026-05-01 08:29 | 27.88766 | -17.89330 | 2574 ft | 176 kts | 48° |
| 2026-05-01 08:30 | 27.89598 | -17.88261 | 2830 ft | 185 kts | 49° |
| 2026-05-01 08:30 | 27.90455 | -17.87135 | 3103 ft | 192 kts | 49° |
| 2026-05-01 08:30 | 27.91327 | -17.85981 | 3433 ft | 194 kts | 49° |
| 2026-05-01 08:30 | 27.92202 | -17.84817 | 3782 ft | 194 kts | 49° |
| 2026-05-01 08:31 | 27.93083 | -17.83661 | 4163 ft | 194 kts | 49° |
| 2026-05-01 08:31 | 27.93974 | -17.82506 | 4509 ft | 195 kts | 49° |
| 2026-05-01 08:31 | 27.94858 | -17.81356 | 4912 ft | 193 kts | 49° |
| 2026-05-01 08:31 | 27.95734 | -17.80216 | 5297 ft | 191 kts | 49° |
| 2026-05-01 08:32 | 27.96609 | -17.79080 | 5643 ft | 193 kts | 49° |
| 2026-05-01 08:32 | 27.97490 | -17.77928 | 5975 ft | 194 kts | 50° |
| 2026-05-01 08:32 | 27.98378 | -17.76764 | 6294 ft | 197 kts | 50° |
| 2026-05-01 08:32 | 27.99276 | -17.75588 | 6608 ft | 199 kts | 50° |
| 2026-05-01 08:33 | 28.00183 | -17.74402 | 6916 ft | 200 kts | 50° |
| 2026-05-01 08:33 | 28.01109 | -17.73181 | 7032 ft | 213 kts | 50° |
| 2026-05-01 08:33 | 28.02097 | -17.71866 | 7123 ft | 223 kts | 51° |
| 2026-05-01 08:33 | 28.03111 | -17.70529 | 7347 ft | 224 kts | 50° |
| 2026-05-01 08:34 | 28.04132 | -17.69190 | 7586 ft | 226 kts | 50° |
| 2026-05-01 08:34 | 28.05162 | -17.67843 | 7809 ft | 227 kts | 50° |
| 2026-05-01 08:34 | 28.06196 | -17.66491 | 8023 ft | 228 kts | 50° |
| 2026-05-01 08:34 | 28.07238 | -17.65127 | 8243 ft | 229 kts | 49° |
| 2026-05-01 08:35 | 28.08282 | -17.63760 | 8468 ft | 230 kts | 49° |
| 2026-05-01 08:35 | 28.09317 | -17.62407 | 8688 ft | 231 kts | 49° |
| 2026-05-01 08:35 | 28.10371 | -17.61028 | 8898 ft | 232 kts | 49° |
| 2026-05-01 08:35 | 28.11427 | -17.59643 | 9103 ft | 233 kts | 49° |
| 2026-05-01 08:36 | 28.12489 | -17.58251 | 9306 ft | 234 kts | 49° |
| 2026-05-01 08:36 | 28.13556 | -17.56853 | 9501 ft | 235 kts | 49° |
| 2026-05-01 08:36 | 28.14628 | -17.55449 | 9693 ft | 236 kts | 49° |
| 2026-05-01 08:36 | 28.15704 | -17.54040 | 9887 ft | 237 kts | 49° |
| 2026-05-01 08:37 | 28.16782 | -17.52623 | 10074 ft | 238 kts | 49° |
| 2026-05-01 08:37 | 28.17867 | -17.51199 | 10244 ft | 239 kts | 49° |
| 2026-05-01 08:37 | 28.18953 | -17.49774 | 10404 ft | 240 kts | 49° |
| 2026-05-01 08:37 | 28.20043 | -17.48339 | 10569 ft | 241 kts | 49° |
| 2026-05-01 08:38 | 28.21139 | -17.46901 | 10730 ft | 241 kts | 49° |
| 2026-05-01 08:38 | 28.22236 | -17.45457 | 10884 ft | 242 kts | 49° |
| 2026-05-01 08:38 | 28.23339 | -17.44008 | 11029 ft | 244 kts | 49° |
| 2026-05-01 08:38 | 28.24455 | -17.42540 | 11092 ft | 248 kts | 49° |
| 2026-05-01 08:39 | 28.25595 | -17.41038 | 11119 ft | 254 kts | 49° |
| 2026-05-01 08:39 | 28.26757 | -17.39508 | 11140 ft | 258 kts | 49° |
| 2026-05-01 08:39 | 28.27938 | -17.37954 | 11146 ft | 262 kts | 49° |
| 2026-05-01 08:39 | 28.29132 | -17.36378 | 11148 ft | 265 kts | 49° |
| 2026-05-01 08:40 | 28.31556 | -17.33183 | 11153 ft | 269 kts | 49° |
| 2026-05-01 08:40 | 28.32782 | -17.31569 | 11155 ft | 271 kts | 49° |
| 2026-05-01 08:40 | 28.34011 | -17.29945 | 11151 ft | 271 kts | 49° |
| 2026-05-01 08:41 | 28.35005 | -17.28161 | 11149 ft | 268 kts | 71° |
| 2026-05-01 08:41 | 28.35509 | -17.26126 | 11153 ft | 268 kts | 78° |
| 2026-05-01 08:41 | 28.35902 | -17.24049 | 11155 ft | 270 kts | 79° |
| 2026-05-01 08:41 | 28.36283 | -17.21961 | 11154 ft | 271 kts | 79° |
| 2026-05-01 08:42 | 28.36672 | -17.19867 | 11153 ft | 271 kts | 79° |
| 2026-05-01 08:42 | 28.37068 | -17.17769 | 11153 ft | 272 kts | 79° |
| 2026-05-01 08:42 | 28.37463 | -17.15670 | 11153 ft | 272 kts | 79° |
| 2026-05-01 08:42 | 28.37858 | -17.13567 | 11154 ft | 272 kts | 79° |
| 2026-05-01 08:43 | 28.38248 | -17.11460 | 11159 ft | 273 kts | 79° |
| 2026-05-01 08:43 | 28.38640 | -17.09354 | 11162 ft | 273 kts | 79° |
| 2026-05-01 08:43 | 28.39031 | -17.07245 | 11164 ft | 273 kts | 79° |
| 2026-05-01 08:43 | 28.39421 | -17.05136 | 11168 ft | 273 kts | 79° |
| 2026-05-01 08:44 | 28.39812 | -17.03024 | 11167 ft | 273 kts | 79° |
| 2026-05-01 08:44 | 28.40202 | -17.00914 | 11169 ft | 273 kts | 79° |
| 2026-05-01 08:44 | 28.40594 | -16.98803 | 11176 ft | 273 kts | 79° |
| 2026-05-01 08:44 | 28.40985 | -16.96689 | 11175 ft | 273 kts | 79° |
| 2026-05-01 08:45 | 28.41382 | -16.94577 | 11175 ft | 273 kts | 79° |
| 2026-05-01 08:45 | 28.41766 | -16.92493 | 11177 ft | 273 kts | 79° |
| 2026-05-01 08:45 | 28.42150 | -16.90379 | 11174 ft | 273 kts | 80° |
| 2026-05-01 08:45 | 28.42536 | -16.88265 | 11180 ft | 273 kts | 80° |
| 2026-05-01 08:46 | 28.42923 | -16.86148 | 11178 ft | 273 kts | 79° |
| 2026-05-01 08:46 | 28.43313 | -16.84035 | 11179 ft | 273 kts | 79° |
| 2026-05-01 08:46 | 28.43701 | -16.81922 | 11179 ft | 274 kts | 79° |
| 2026-05-01 08:46 | 28.44090 | -16.79808 | 11178 ft | 274 kts | 79° |
| 2026-05-01 08:47 | 28.44479 | -16.77689 | 11178 ft | 274 kts | 79° |
| 2026-05-01 08:47 | 28.44866 | -16.75574 | 11179 ft | 274 kts | 79° |
| 2026-05-01 08:47 | 28.45252 | -16.73459 | 11183 ft | 274 kts | 79° |
| 2026-05-01 08:47 | 28.45639 | -16.71341 | 11185 ft | 274 kts | 80° |
| 2026-05-01 08:48 | 28.46016 | -16.69279 | 11185 ft | 274 kts | 80° |
| 2026-05-01 08:48 | 28.46402 | -16.67162 | 11183 ft | 274 kts | 80° |
| 2026-05-01 08:48 | 28.46788 | -16.65045 | 11186 ft | 274 kts | 80° |
| 2026-05-01 08:48 | 28.47173 | -16.62928 | 11184 ft | 274 kts | 80° |
| 2026-05-01 08:49 | 28.47559 | -16.60814 | 11184 ft | 274 kts | 80° |
| 2026-05-01 08:49 | 28.47944 | -16.58695 | 11186 ft | 274 kts | 80° |
| 2026-05-01 08:49 | 28.48322 | -16.56579 | 11185 ft | 271 kts | 82° |
| 2026-05-01 08:49 | 28.48229 | -16.54463 | 11001 ft | 272 kts | 107° |
| 2026-05-01 08:50 | 28.47711 | -16.52364 | 10739 ft | 281 kts | 109° |
| 2026-05-01 08:50 | 28.47119 | -16.50216 | 10482 ft | 285 kts | 110° |
| 2026-05-01 08:50 | 28.46505 | -16.48083 | 10228 ft | 284 kts | 111° |
| 2026-05-01 08:50 | 28.45877 | -16.45955 | 9930 ft | 284 kts | 111° |
| 2026-05-01 08:51 | 28.45239 | -16.43837 | 9487 ft | 284 kts | 111° |
| 2026-05-01 08:51 | 28.44591 | -16.41709 | 8983 ft | 285 kts | 111° |
| 2026-05-01 08:51 | 28.43938 | -16.39611 | 8470 ft | 276 kts | 111° |
| 2026-05-01 08:51 | 28.43318 | -16.37634 | 7962 ft | 262 kts | 111° |
| 2026-05-01 08:52 | 28.42712 | -16.35696 | 7505 ft | 260 kts | 111° |
| 2026-05-01 08:52 | 28.42105 | -16.33765 | 7010 ft | 258 kts | 111° |
| 2026-05-01 08:52 | 28.41499 | -16.31852 | 6546 ft | 257 kts | 111° |
| 2026-05-01 08:52 | 28.40892 | -16.29953 | 6059 ft | 255 kts | 111° |
| 2026-05-01 08:53 | 28.40285 | -16.28081 | 5541 ft | 244 kts | 111° |
| 2026-05-01 08:53 | 28.39726 | -16.26369 | 5174 ft | 219 kts | 111° |
| 2026-05-01 08:53 | 28.39371 | -16.24770 | 4640 ft | 204 kts | 84° |
| 2026-05-01 08:53 | 28.39988 | -16.23429 | 4307 ft | 190 kts | 42° |
| 2026-05-01 08:54 | 28.41117 | -16.22723 | 4067 ft | 184 kts | 22° |
| 2026-05-01 08:54 | 28.42318 | -16.22222 | 3963 ft | 176 kts | 8° |
| 2026-05-01 08:54 | 28.43394 | -16.22519 | 3807 ft | 158 kts | 327° |
| 2026-05-01 08:54 | 28.44267 | -16.23363 | 3374 ft | 165 kts | 315° |
| 2026-05-01 08:55 | 28.45017 | -16.24290 | 3240 ft | 151 kts | 302° |
| 2026-05-01 08:55 | 28.45383 | -16.25382 | 3099 ft | 145 kts | 289° |
| 2026-05-01 08:55 | 28.45679 | -16.26392 | 3106 ft | 130 kts | 290° |
| 2026-05-01 08:55 | 28.45983 | -16.27323 | 2977 ft | 123 kts | 291° |
| 2026-05-01 08:56 | 28.46282 | -16.28234 | 2830 ft | 124 kts | 291° |
| 2026-05-01 08:56 | 28.46603 | -16.29179 | 2653 ft | 131 kts | 291° |
| 2026-05-01 08:56 | 28.46929 | -16.30142 | 2558 ft | 131 kts | 290° |
| 2026-05-01 08:56 | 28.47252 | -16.31109 | 2332 ft | 130 kts | 291° |
| 2026-05-01 08:57 | 28.47569 | -16.32069 | 2163 ft | 130 kts | 290° |
| 2026-05-01 08:57 | 28.47893 | -16.33031 | 2028 ft | 127 kts | 290° |
| 2026-05-01 08:57 | 28.48170 | -16.33860 | 2044 ft | 78 kts | 291° |
| 2026-05-01 08:57 | 28.48303 | -16.34136 | 2055 ft | 21 kts | 323° |
| 2026-05-01 08:58 | 28.48383 | -16.34208 | 2058 ft | 14 kts | 324° |
| 2026-05-01 08:58 | 28.48423 | -16.34275 | 2059 ft | 11 kts | 290° |
| 2026-05-01 08:58 | 28.48451 | -16.34360 | 2061 ft | 12 kts | 291° |
| 2026-05-01 08:58 | 28.48482 | -16.34454 | 2062 ft | 13 kts | 290° |
| 2026-05-01 08:59 | 28.48515 | -16.34553 | 2064 ft | 14 kts | 291° |
| 2026-05-01 08:59 | 28.48559 | -16.34633 | 2065 ft | 7 kts | 356° |
| 2026-05-01 08:59 | 28.48606 | -16.34613 | 2065 ft | 8 kts | 20° |
| 2026-05-01 08:59 | 28.48650 | -16.34594 | 2065 ft | 4 kts | 20° |
| 2026-05-01 09:00 | 28.48657 | -16.34591 | 2065 ft | 0 kts | 20° |